Kapitan Konkin — 3EZH6 — position and weather

sailwx.info

Track history (hours):
 
Tides and Currents Weather Stations Pressure Air Temp Water Temp Dewpoint Dewpoint Depression Visibility Wind Speed Wind Dir Waves Ship Positions

Kapitan Konkin

Last reported at 2017-Dec-18 10:12 UTC. Time now 2018-Jan-23 10:04 UTC.
Position N 36°18' W 127°22'.
Warning: this ship's position is 35 days out of date.

Length 229 m; draft 7.2 m.

Type: Cargo ship. MMSI: 372083000.

Date/timePositionNaut miles runAvg speedWind from/ knotsBaromVisibWave heightAir tempDewpointWater temp
2017-Dec-18 10:12N 36°18' W 127°22'8012.0
2017-Dec-18 03:32N 35°19' W 126°15'012.5
2017-Dec-18 03:30N 35°19' W 126°15'154 6.1
2017-Dec-17 02:29N 34°02' W 123°33'6 8.9
2017-Dec-17 01:46N 34°04' W 123°40'26 1.7
2017-Dec-16 10:31N 34°30' W 123°41'110.3
2017-Dec-16 10:27N 34°30' W 123°41'5711.0
2017-Dec-16 05:20N 34°28' W 122°32'411.4
2017-Dec-16 04:58N 34°28' W 122°27'511.2
2017-Dec-16 04:30N 34°28' W 122°21'611.2
2017-Dec-16 04:01N 34°28' W 122°14'711.2
2017-Dec-16 03:22N 34°28' W 122°05'611.3
2017-Dec-16 02:48N 34°28' W 121°58'411.5
2017-Dec-16 02:30N 34°28' W 121°53'611.5
2017-Dec-16 02:01N 34°27' W 121°47'611.4
2017-Dec-16 01:30N 34°27' W 121°40'611.6
2017-Dec-16 01:00N 34°27' W 121°33'611.5
2017-Dec-16 00:30N 34°27' W 121°26'611.5
2017-Dec-16 00:00N 34°27' W 121°19'611.6
2017-Dec-15 23:31N 34°27' W 121°12'510.8
2017-Dec-15 23:00N 34°28' W 121°05'510.8
2017-Dec-15 22:31N 34°28' W 120°59'510.1
2017-Dec-15 22:00N 34°27' W 120°53'510.5
2017-Dec-15 21:31N 34°25' W 120°47'610.6
2017-Dec-15 20:59N 34°24' W 120°40'510.8
2017-Dec-15 20:30N 34°22' W 120°34'611.1
2017-Dec-15 19:59N 34°21' W 120°27'510.3
2017-Dec-15 19:30N 34°19' W 120°22'610.4
2017-Dec-15 18:58N 34°18' W 120°15'510.5
2017-Dec-15 18:30N 34°17' W 120°09'510.4
2017-Dec-15 17:58N 34°15' W 120°03'510.8
2017-Dec-15 17:29N 34°14' W 119°57'610.9
2017-Dec-15 16:53N 34°12' W 119°49'410.8
2017-Dec-15 16:28N 34°11' W 119°44'511.0
2017-Dec-15 16:00N 34°09' W 119°38'611.0
2017-Dec-15 15:27N 34°08' W 119°31'511.2
2017-Dec-15 14:59N 34°06' W 119°25'511.3
2017-Dec-15 14:30N 34°05' W 119°19'611.0
2017-Dec-15 13:58N 34°03' W 119°12'611.5
2017-Dec-15 13:26N 33°60' W 119°06'512.1
2017-Dec-15 13:00N 33°57' W 119°00'611.9
2017-Dec-15 12:28N 33°54' W 118°54'511.2
2017-Dec-15 12:01N 33°51' W 118°48'611.9
2017-Dec-15 11:30N 33°49' W 118°42'611.8
2017-Dec-15 11:00N 33°45' W 118°36'611.6
2017-Dec-15 10:30N 33°43' W 118°30'612.0
2017-Dec-15 10:00N 33°40' W 118°23'911.3
2017-Dec-15 09:12N 33°39' W 118°13'2 8.9
2017-Dec-15 09:00N 33°40' W 118°12'4 7.9
2017-Dec-15 08:28N 33°44' W 118°12'1 0.0
2017-Dec-13 21:13N 33°45' W 118°12'0 0.0
2017-Dec-13 20:55N 33°45' W 118°12'0 0.0
2017-Dec-13 20:25N 33°45' W 118°12'0 0.0
2017-Dec-13 19:42N 33°45' W 118°12'0 0.0
2017-Dec-13 19:30N 33°45' W 118°12'0 0.0
2017-Dec-13 19:00N 33°45' W 118°12'0 0.0
2017-Dec-13 18:18N 33°45' W 118°12'0 0.0
2017-Dec-12 15:26N 33°44' W 118°12'3 6.8
2017-Dec-12 15:01N 33°42' W 118°11'4 8.2
2017-Dec-12 14:30N 33°38' W 118°10'2 3.1
2017-Dec-12 14:01N 33°36' W 118°10'3 5.6
2017-Dec-12 13:30N 33°34' W 118°09'3 6.2
2017-Dec-12 13:00N 33°31' W 118°08'4 7.5
2017-Dec-12 12:31N 33°27' W 118°06'4 8.9
2017-Dec-12 12:00N 33°23' W 118°05'4 8.1
2017-Dec-12 11:31N 33°19' W 118°03'4 7.2
2017-Dec-12 11:00N 33°16' W 118°01'4 8.8
2017-Dec-12 10:31N 33°12' W 117°59'4 8.9
2017-Dec-12 10:01N 33°08' W 117°57'3 3.4
2017-Dec-12 09:14N 33°05' W 117°56'0 0.3
2017-Dec-12 09:00N 33°05' W 117°56'0 0.3
2017-Dec-12 08:24N 33°05' W 117°57'0 0.2
2017-Dec-12 07:54N 33°05' W 117°57'0 0.2
2017-Dec-12 07:30N 33°05' W 117°57'0 0.2
2017-Dec-12 06:42N 33°05' W 117°57'0 0.1
2017-Dec-12 06:12N 33°05' W 117°57'0 0.0
2017-Dec-12 06:00N 33°05' W 117°57'0 0.1
2017-Dec-12 05:30N 33°05' W 117°57'0 0.3
2017-Dec-12 05:00N 33°05' W 117°57'0 0.5
2017-Dec-12 04:30N 33°05' W 117°57'0 0.6
2017-Dec-12 03:48N 33°06' W 117°57'0 0.5
2017-Dec-12 03:30N 33°06' W 117°57'0 0.7
2017-Dec-12 03:00N 33°06' W 117°57'1 2.2
2017-Dec-12 02:30N 33°07' W 117°56'5 9.6
2017-Dec-12 02:00N 33°10' W 117°51'2 4.3
2017-Dec-12 01:31N 33°10' W 117°49'0 0.8
2017-Dec-12 01:01N 33°10' W 117°49'1 1.0
2017-Dec-12 00:30N 33°10' W 117°50'0 1.0
2017-Dec-12 00:00N 33°09' W 117°50'0 1.0
2017-Dec-11 23:30N 33°09' W 117°51'1 1.0
2017-Dec-11 23:00N 33°09' W 117°51'0 0.9
2017-Dec-11 22:30N 33°08' W 117°52'0 0.9
2017-Dec-11 22:00N 33°08' W 117°52'0 1.0
2017-Dec-11 21:30N 33°08' W 117°53'0 0.9
2017-Dec-11 21:00N 33°08' W 117°53'0 0.9
2017-Dec-11 20:30N 33°07' W 117°53'0 0.9
2017-Dec-11 20:00N 33°07' W 117°54'0 0.9
2017-Dec-11 19:30N 33°07' W 117°54'0 0.8
2017-Dec-11 19:00N 33°06' W 117°54'0 1.0
2017-Dec-11 18:30N 33°06' W 117°55'0 1.0
2017-Dec-11 18:00N 33°05' W 117°55'0 1.0
2017-Dec-11 17:30N 33°05' W 117°55'0 1.0
2017-Dec-11 17:00N 33°05' W 117°56'0 0.8
2017-Dec-11 16:30N 33°04' W 117°56'0 0.8
2017-Dec-11 16:00N 33°04' W 117°57'0 0.8
2017-Dec-11 15:30N 33°04' W 117°57'0 0.7
2017-Dec-11 15:00N 33°04' W 117°57'0 0.8
2017-Dec-11 14:30N 33°04' W 117°58'0 0.7
2017-Dec-11 14:00N 33°03' W 117°58'0 0.7
2017-Dec-11 13:30N 33°03' W 117°58'0 0.6
2017-Dec-11 13:00N 33°03' W 117°59'0 0.6
2017-Dec-11 12:30N 33°03' W 117°59'0 0.5
2017-Dec-11 12:00N 33°03' W 117°59'0 0.6
2017-Dec-11 11:30N 33°03' W 117°60'0 0.6
2017-Dec-11 10:54N 33°03' W 118°00'0 0.7
2017-Dec-11 10:30N 33°03' W 118°00'0 0.5
2017-Dec-11 10:00N 33°03' W 118°01'0 0.5
2017-Dec-11 09:30N 33°03' W 118°01'0 0.3
2017-Dec-11 09:00N 33°03' W 118°01'0 0.2
2017-Dec-11 08:30N 33°03' W 118°01'0 0.1
2017-Dec-11 08:00N 33°03' W 118°01'0 0.0
2017-Dec-11 07:30N 33°03' W 118°01'0 0.2
2017-Dec-11 07:00N 33°03' W 118°01'0 0.2
2017-Dec-11 06:30N 33°03' W 118°02'0 0.2
2017-Dec-11 06:00N 33°03' W 118°01'0 0.2
2017-Dec-11 05:30N 33°03' W 118°01'0 0.3
2017-Dec-11 05:00N 33°03' W 118°01'0 0.5
2017-Dec-11 04:30N 33°03' W 118°01'0 0.7
2017-Dec-11 04:00N 33°04' W 118°01'1 1.0
2017-Dec-11 03:30N 33°04' W 118°02'1 1.9
2017-Dec-11 03:00N 33°05' W 118°02'3 5.3
2017-Dec-11 02:30N 33°08' W 118°03'4 7.7
2017-Dec-11 02:00N 33°11' W 118°04'5 9.7
2017-Dec-11 01:30N 33°16' W 118°05'510.6
2017-Dec-11 01:00N 33°21' W 118°07'1710.2
2017-Dec-10 23:18N 33°38' W 118°11'33 4.9
2017-Dec-10 16:42N 33°49' W 118°48'311.9
2017-Dec-10 16:29N 33°50' W 118°51'611.9
2017-Dec-10 16:00N 33°53' W 118°57'611.9
2017-Dec-10 15:30N 33°56' W 119°03'611.8
2017-Dec-10 15:00N 33°59' W 119°09'612.2
2017-Dec-10 14:30N 34°02' W 119°16'611.5
2017-Dec-10 13:59N 34°04' W 119°23'510.7
2017-Dec-10 13:30N 34°05' W 119°29'610.9
2017-Dec-10 12:55N 34°07' W 119°36'511.2
2017-Dec-10 12:30N 34°08' W 119°41'611.4
2017-Dec-10 11:59N 34°10' W 119°48'611.6
2017-Dec-10 11:29N 34°11' W 119°55'610.5
2017-Dec-10 10:55N 34°13' W 120°02'510.5
2017-Dec-10 10:29N 34°14' W 120°07'610.6
2017-Dec-10 09:57N 34°15' W 120°14'3 5.3
2017-Dec-10 09:28N 34°16' W 120°17'4 7.6
2017-Dec-10 08:57N 34°17' W 120°21'511.7
2017-Dec-10 08:30N 34°18' W 120°28'611.6
2017-Dec-10 07:59N 34°20' W 120°34'610.1
2017-Dec-10 07:24N 34°22' W 120°41'610.8
2017-Dec-10 06:50N 34°23' W 120°49'410.7
2017-Dec-10 06:27N 34°24' W 120°53'511.6
2017-Dec-10 06:00N 34°24' W 120°60'711.4
2017-Dec-10 05:25N 34°24' W 121°08'511.7
2017-Dec-10 05:00N 34°24' W 121°14'611.6
2017-Dec-10 04:30N 34°25' W 121°21'612.0
2017-Dec-10 04:00N 34°25' W 121°28'713.2
2017-Dec-10 03:30N 34°25' W 121°36'713.3
2017-Dec-10 03:00N 34°25' W 121°44'713.7
2017-Dec-10 02:30N 34°25' W 121°52'714.0
2017-Dec-10 02:01N 34°25' W 122°01'713.6
2017-Dec-10 01:30N 34°25' W 122°09'713.5
2017-Dec-10 01:00N 34°25' W 122°17'713.5
2017-Dec-10 00:30N 34°25' W 122°25'713.6
2017-Dec-10 00:00N 34°25' W 122°34'713.4
2017-Dec-09 23:30N 34°25' W 122°42'713.3
2017-Dec-09 23:00N 34°26' W 122°50'713.1
2017-Dec-09 22:30N 34°26' W 122°58'713.0
2017-Dec-09 22:00N 34°27' W 123°06'612.9
2017-Dec-09 21:31N 34°27' W 123°13'713.1
2017-Dec-09 21:00N 34°26' W 123°21'713.5
2017-Dec-09 20:31N 34°26' W 123°30'713.3
2017-Dec-09 20:00N 34°25' W 123°38'713.4
2017-Dec-09 19:30N 34°25' W 123°46'713.3
2017-Dec-09 19:00N 34°24' W 123°54'713.3
2017-Dec-09 18:30N 34°24' W 124°02'713.3
2017-Dec-09 18:00N 34°24' W 124°10'713.6
2017-Dec-09 17:31N 34°26' W 124°18'713.5
2017-Dec-09 17:00N 34°27' W 124°26'713.7
2017-Dec-09 16:30N 34°28' W 124°34'713.9
2017-Dec-09 16:00N 34°28' W 124°42'714.0
2017-Dec-09 15:30N 34°28' W 124°51'714.0
2017-Dec-09 15:00N 34°28' W 124°59'913.8
2017-Dec-09 14:23N 34°28' W 125°10'513.8
2017-Dec-09 14:00N 34°28' W 125°16'713.7
2017-Dec-09 13:30N 34°28' W 125°24'1013.7
2017-Dec-09 12:46N 34°28' W 125°37'413.6
2017-Dec-09 12:30N 34°28' W 125°41'713.5
2017-Dec-09 12:00N 34°27' W 125°49'813.6
2017-Dec-09 11:24N 34°26' W 125°59'513.5
2017-Dec-09 10:59N 34°26' W 126°06'713.5
2017-Dec-09 10:30N 34°25' W 126°14'713.4
2017-Dec-09 10:00N 34°27' W 126°22'713.3
2017-Dec-09 09:30N 34°27' W 126°30'713.2
2017-Dec-09 09:00N 34°27' W 126°38'  
Track history (hours):
 
Tides and Currents Weather Stations Pressure Air Temp Water Temp Dewpoint Dewpoint Depression Visibility Wind Speed Wind Dir Waves Ship Positions

Kapitan Konkin

Last reported at 2017-Dec-18 10:12 UTC. Time now 2018-Jan-23 10:04 UTC.
Position N 36°18' W 127°22'.
Warning: this ship's position is 35 days out of date.

Length 229 m; draft 7.2 m.

Type: Cargo ship. MMSI: 372083000.

Date/timePositionNaut miles runAvg speedWind from/ knotsBaromVisibWave heightAir tempDewpointWater temp
2017-Dec-18 10:12N 36°18' W 127°22'8012.0
2017-Dec-18 03:32N 35°19' W 126°15'012.5
2017-Dec-18 03:30N 35°19' W 126°15'154 6.1
2017-Dec-17 02:29N 34°02' W 123°33'6 8.9
2017-Dec-17 01:46N 34°04' W 123°40'26 1.7
2017-Dec-16 10:31N 34°30' W 123°41'110.3
2017-Dec-16 10:27N 34°30' W 123°41'5711.0
2017-Dec-16 05:20N 34°28' W 122°32'411.4
2017-Dec-16 04:58N 34°28' W 122°27'511.2
2017-Dec-16 04:30N 34°28' W 122°21'611.2
2017-Dec-16 04:01N 34°28' W 122°14'711.2
2017-Dec-16 03:22N 34°28' W 122°05'611.3
2017-Dec-16 02:48N 34°28' W 121°58'411.5
2017-Dec-16 02:30N 34°28' W 121°53'611.5
2017-Dec-16 02:01N 34°27' W 121°47'611.4
2017-Dec-16 01:30N 34°27' W 121°40'611.6
2017-Dec-16 01:00N 34°27' W 121°33'611.5
2017-Dec-16 00:30N 34°27' W 121°26'611.5
2017-Dec-16 00:00N 34°27' W 121°19'611.6
2017-Dec-15 23:31N 34°27' W 121°12'510.8
2017-Dec-15 23:00N 34°28' W 121°05'510.8
2017-Dec-15 22:31N 34°28' W 120°59'510.1
2017-Dec-15 22:00N 34°27' W 120°53'510.5
2017-Dec-15 21:31N 34°25' W 120°47'610.6
2017-Dec-15 20:59N 34°24' W 120°40'510.8
2017-Dec-15 20:30N 34°22' W 120°34'611.1
2017-Dec-15 19:59N 34°21' W 120°27'510.3
2017-Dec-15 19:30N 34°19' W 120°22'610.4
2017-Dec-15 18:58N 34°18' W 120°15'510.5
2017-Dec-15 18:30N 34°17' W 120°09'510.4
2017-Dec-15 17:58N 34°15' W 120°03'510.8
2017-Dec-15 17:29N 34°14' W 119°57'610.9
2017-Dec-15 16:53N 34°12' W 119°49'410.8
2017-Dec-15 16:28N 34°11' W 119°44'511.0
2017-Dec-15 16:00N 34°09' W 119°38'611.0
2017-Dec-15 15:27N 34°08' W 119°31'511.2
2017-Dec-15 14:59N 34°06' W 119°25'511.3
2017-Dec-15 14:30N 34°05' W 119°19'611.0
2017-Dec-15 13:58N 34°03' W 119°12'611.5
2017-Dec-15 13:26N 33°60' W 119°06'512.1
2017-Dec-15 13:00N 33°57' W 119°00'611.9
2017-Dec-15 12:28N 33°54' W 118°54'511.2
2017-Dec-15 12:01N 33°51' W 118°48'611.9
2017-Dec-15 11:30N 33°49' W 118°42'611.8
2017-Dec-15 11:00N 33°45' W 118°36'611.6
2017-Dec-15 10:30N 33°43' W 118°30'612.0
2017-Dec-15 10:00N 33°40' W 118°23'911.3
2017-Dec-15 09:12N 33°39' W 118°13'2 8.9
2017-Dec-15 09:00N 33°40' W 118°12'4 7.9
2017-Dec-15 08:28N 33°44' W 118°12'1 0.0
2017-Dec-13 21:13N 33°45' W 118°12'0 0.0
2017-Dec-13 20:55N 33°45' W 118°12'0 0.0
2017-Dec-13 20:25N 33°45' W 118°12'0 0.0
2017-Dec-13 19:42N 33°45' W 118°12'0 0.0
2017-Dec-13 19:30N 33°45' W 118°12'0 0.0
2017-Dec-13 19:00N 33°45' W 118°12'0 0.0
2017-Dec-13 18:18N 33°45' W 118°12'0 0.0
2017-Dec-12 15:26N 33°44' W 118°12'3 6.8
2017-Dec-12 15:01N 33°42' W 118°11'4 8.2
2017-Dec-12 14:30N 33°38' W 118°10'2 3.1
2017-Dec-12 14:01N 33°36' W 118°10'3 5.6
2017-Dec-12 13:30N 33°34' W 118°09'3 6.2
2017-Dec-12 13:00N 33°31' W 118°08'4 7.5
2017-Dec-12 12:31N 33°27' W 118°06'4 8.9
2017-Dec-12 12:00N 33°23' W 118°05'4 8.1
2017-Dec-12 11:31N 33°19' W 118°03'4 7.2
2017-Dec-12 11:00N 33°16' W 118°01'4 8.8
2017-Dec-12 10:31N 33°12' W 117°59'4 8.9
2017-Dec-12 10:01N 33°08' W 117°57'3 3.4
2017-Dec-12 09:14N 33°05' W 117°56'0 0.3
2017-Dec-12 09:00N 33°05' W 117°56'0 0.3
2017-Dec-12 08:24N 33°05' W 117°57'0 0.2
2017-Dec-12 07:54N 33°05' W 117°57'0 0.2
2017-Dec-12 07:30N 33°05' W 117°57'0 0.2
2017-Dec-12 06:42N 33°05' W 117°57'0 0.1
2017-Dec-12 06:12N 33°05' W 117°57'0 0.0
2017-Dec-12 06:00N 33°05' W 117°57'0 0.1
2017-Dec-12 05:30N 33°05' W 117°57'0 0.3
2017-Dec-12 05:00N 33°05' W 117°57'0 0.5
2017-Dec-12 04:30N 33°05' W 117°57'0 0.6
2017-Dec-12 03:48N 33°06' W 117°57'0 0.5
2017-Dec-12 03:30N 33°06' W 117°57'0 0.7
2017-Dec-12 03:00N 33°06' W 117°57'1 2.2
2017-Dec-12 02:30N 33°07' W 117°56'5 9.6
2017-Dec-12 02:00N 33°10' W 117°51'2 4.3
2017-Dec-12 01:31N 33°10' W 117°49'0 0.8
2017-Dec-12 01:01N 33°10' W 117°49'1 1.0
2017-Dec-12 00:30N 33°10' W 117°50'0 1.0
2017-Dec-12 00:00N 33°09' W 117°50'0 1.0
2017-Dec-11 23:30N 33°09' W 117°51'1 1.0
2017-Dec-11 23:00N 33°09' W 117°51'0 0.9
2017-Dec-11 22:30N 33°08' W 117°52'0 0.9
2017-Dec-11 22:00N 33°08' W 117°52'0 1.0
2017-Dec-11 21:30N 33°08' W 117°53'0 0.9
2017-Dec-11 21:00N 33°08' W 117°53'0 0.9
2017-Dec-11 20:30N 33°07' W 117°53'0 0.9
2017-Dec-11 20:00N 33°07' W 117°54'0 0.9
2017-Dec-11 19:30N 33°07' W 117°54'0 0.8
2017-Dec-11 19:00N 33°06' W 117°54'0 1.0
2017-Dec-11 18:30N 33°06' W 117°55'0 1.0
2017-Dec-11 18:00N 33°05' W 117°55'0 1.0
2017-Dec-11 17:30N 33°05' W 117°55'0 1.0
2017-Dec-11 17:00N 33°05' W 117°56'0 0.8
2017-Dec-11 16:30N 33°04' W 117°56'0 0.8
2017-Dec-11 16:00N 33°04' W 117°57'0 0.8
2017-Dec-11 15:30N 33°04' W 117°57'0 0.7
2017-Dec-11 15:00N 33°04' W 117°57'0 0.8
2017-Dec-11 14:30N 33°04' W 117°58'0 0.7
2017-Dec-11 14:00N 33°03' W 117°58'0 0.7
2017-Dec-11 13:30N 33°03' W 117°58'0 0.6
2017-Dec-11 13:00N 33°03' W 117°59'0 0.6
2017-Dec-11 12:30N 33°03' W 117°59'0 0.5
2017-Dec-11 12:00N 33°03' W 117°59'0 0.6
2017-Dec-11 11:30N 33°03' W 117°60'0 0.6
2017-Dec-11 10:54N 33°03' W 118°00'0 0.7
2017-Dec-11 10:30N 33°03' W 118°00'0 0.5
2017-Dec-11 10:00N 33°03' W 118°01'0 0.5
2017-Dec-11 09:30N 33°03' W 118°01'0 0.3
2017-Dec-11 09:00N 33°03' W 118°01'0 0.2
2017-Dec-11 08:30N 33°03' W 118°01'0 0.1
2017-Dec-11 08:00N 33°03' W 118°01'0 0.0
2017-Dec-11 07:30N 33°03' W 118°01'0 0.2
2017-Dec-11 07:00N 33°03' W 118°01'0 0.2
2017-Dec-11 06:30N 33°03' W 118°02'0 0.2
2017-Dec-11 06:00N 33°03' W 118°01'0 0.2
2017-Dec-11 05:30N 33°03' W 118°01'0 0.3
2017-Dec-11 05:00N 33°03' W 118°01'0 0.5
2017-Dec-11 04:30N 33°03' W 118°01'0 0.7
2017-Dec-11 04:00N 33°04' W 118°01'1 1.0
2017-Dec-11 03:30N 33°04' W 118°02'1 1.9
2017-Dec-11 03:00N 33°05' W 118°02'3 5.3
2017-Dec-11 02:30N 33°08' W 118°03'4 7.7
2017-Dec-11 02:00N 33°11' W 118°04'5 9.7
2017-Dec-11 01:30N 33°16' W 118°05'510.6
2017-Dec-11 01:00N 33°21' W 118°07'1710.2
2017-Dec-10 23:18N 33°38' W 118°11'33 4.9
2017-Dec-10 16:42N 33°49' W 118°48'311.9
2017-Dec-10 16:29N 33°50' W 118°51'611.9
2017-Dec-10 16:00N 33°53' W 118°57'611.9
2017-Dec-10 15:30N 33°56' W 119°03'611.8
2017-Dec-10 15:00N 33°59' W 119°09'612.2
2017-Dec-10 14:30N 34°02' W 119°16'611.5
2017-Dec-10 13:59N 34°04' W 119°23'510.7
2017-Dec-10 13:30N 34°05' W 119°29'610.9
2017-Dec-10 12:55N 34°07' W 119°36'511.2
2017-Dec-10 12:30N 34°08' W 119°41'611.4
2017-Dec-10 11:59N 34°10' W 119°48'611.6
2017-Dec-10 11:29N 34°11' W 119°55'610.5
2017-Dec-10 10:55N 34°13' W 120°02'510.5
2017-Dec-10 10:29N 34°14' W 120°07'610.6
2017-Dec-10 09:57N 34°15' W 120°14'3 5.3
2017-Dec-10 09:28N 34°16' W 120°17'4 7.6
2017-Dec-10 08:57N 34°17' W 120°21'511.7
2017-Dec-10 08:30N 34°18' W 120°28'611.6
2017-Dec-10 07:59N 34°20' W 120°34'610.1
2017-Dec-10 07:24N 34°22' W 120°41'610.8
2017-Dec-10 06:50N 34°23' W 120°49'410.7
2017-Dec-10 06:27N 34°24' W 120°53'511.6
2017-Dec-10 06:00N 34°24' W 120°60'711.4
2017-Dec-10 05:25N 34°24' W 121°08'511.7
2017-Dec-10 05:00N 34°24' W 121°14'611.6
2017-Dec-10 04:30N 34°25' W 121°21'612.0
2017-Dec-10 04:00N 34°25' W 121°28'713.2
2017-Dec-10 03:30N 34°25' W 121°36'713.3
2017-Dec-10 03:00N 34°25' W 121°44'713.7
2017-Dec-10 02:30N 34°25' W 121°52'714.0
2017-Dec-10 02:01N 34°25' W 122°01'713.6
2017-Dec-10 01:30N 34°25' W 122°09'713.5
2017-Dec-10 01:00N 34°25' W 122°17'713.5
2017-Dec-10 00:30N 34°25' W 122°25'713.6
2017-Dec-10 00:00N 34°25' W 122°34'713.4
2017-Dec-09 23:30N 34°25' W 122°42'713.3
2017-Dec-09 23:00N 34°26' W 122°50'713.1
2017-Dec-09 22:30N 34°26' W 122°58'713.0
2017-Dec-09 22:00N 34°27' W 123°06'612.9
2017-Dec-09 21:31N 34°27' W 123°13'713.1
2017-Dec-09 21:00N 34°26' W 123°21'713.5
2017-Dec-09 20:31N 34°26' W 123°30'713.3
2017-Dec-09 20:00N 34°25' W 123°38'713.4
2017-Dec-09 19:30N 34°25' W 123°46'713.3
2017-Dec-09 19:00N 34°24' W 123°54'713.3
2017-Dec-09 18:30N 34°24' W 124°02'713.3
2017-Dec-09 18:00N 34°24' W 124°10'713.6
2017-Dec-09 17:31N 34°26' W 124°18'713.5
2017-Dec-09 17:00N 34°27' W 124°26'713.7
2017-Dec-09 16:30N 34°28' W 124°34'713.9
2017-Dec-09 16:00N 34°28' W 124°42'714.0
2017-Dec-09 15:30N 34°28' W 124°51'714.0
2017-Dec-09 15:00N 34°28' W 124°59'913.8
2017-Dec-09 14:23N 34°28' W 125°10'513.8
2017-Dec-09 14:00N 34°28' W 125°16'713.7
2017-Dec-09 13:30N 34°28' W 125°24'1013.7
2017-Dec-09 12:46N 34°28' W 125°37'413.6
2017-Dec-09 12:30N 34°28' W 125°41'713.5
2017-Dec-09 12:00N 34°27' W 125°49'813.6
2017-Dec-09 11:24N 34°26' W 125°59'513.5
2017-Dec-09 10:59N 34°26' W 126°06'713.5
2017-Dec-09 10:30N 34°25' W 126°14'713.4
2017-Dec-09 10:00N 34°27' W 126°22'713.3
2017-Dec-09 09:30N 34°27' W 126°30'713.2
2017-Dec-09 09:00N 34°27' W 126°38'  

Dump ship's entire track history